createdAt,value
2019-02-10T17:00:40.335Z,24.73
2019-02-10T17:00:49.781Z,24.70
2019-02-10T17:00:59.196Z,24.72
2019-02-10T17:01:08.613Z,24.71
2019-02-10T17:01:18.026Z,24.72
2019-02-10T17:01:27.547Z,24.72
2019-02-10T17:01:37.104Z,24.71
2019-02-10T17:01:46.516Z,24.72
2019-02-10T17:01:55.931Z,24.73
2019-02-10T17:02:05.348Z,24.72
2019-02-10T17:02:14.840Z,24.71
2019-02-10T17:02:24.258Z,24.72
2019-02-10T17:02:33.676Z,24.74
2019-02-10T17:02:43.098Z,24.71
2019-02-10T17:02:52.511Z,24.70
2019-02-10T17:03:01.987Z,24.68
2019-02-10T17:03:11.393Z,24.67
2019-02-10T17:03:20.810Z,24.66
2019-02-10T17:03:30.233Z,24.70
2019-02-10T17:03:39.802Z,24.67
2019-02-10T17:03:49.195Z,24.69
2019-02-10T17:03:58.602Z,24.73
2019-02-10T17:04:08.032Z,24.74
2019-02-10T17:04:17.435Z,24.75
2019-02-10T17:04:26.858Z,24.76
2019-02-10T17:04:36.275Z,24.77
2019-02-10T17:04:45.795Z,24.77
2019-02-10T17:04:55.203Z,24.77
2019-02-10T17:05:05.589Z,24.79
2019-02-10T17:05:14.995Z,24.80
2019-02-10T17:05:24.409Z,24.77
2019-02-10T17:05:33.825Z,24.75
2019-02-10T17:05:43.242Z,24.74
2019-02-10T17:05:52.661Z,24.72
2019-02-10T17:06:02.067Z,24.73
2019-02-10T17:06:11.469Z,24.77
2019-02-10T17:06:20.879Z,24.77
2019-02-10T17:06:30.294Z,24.75
2019-02-10T17:06:39.706Z,24.82
2019-02-10T17:06:49.266Z,24.84
2019-02-10T17:06:58.688Z,24.83
2019-02-10T17:07:08.184Z,24.79
2019-02-10T17:07:17.642Z,24.78
2019-02-10T17:07:27.157Z,24.79
2019-02-10T17:07:36.565Z,24.76
2019-02-10T17:07:45.981Z,24.76
2019-02-10T17:07:55.422Z,24.77
2019-02-10T17:08:04.866Z,24.76
2019-02-10T17:08:14.270Z,24.76
2019-02-10T17:08:23.688Z,24.79
2019-02-10T17:08:33.102Z,24.81
2019-02-10T17:08:42.519Z,24.82
2019-02-10T17:08:51.942Z,24.81
2019-02-10T17:09:01.360Z,24.78
2019-02-10T17:09:12.031Z,24.78
2019-02-10T17:09:21.463Z,24.78
2019-02-10T17:09:30.878Z,24.82
2019-02-10T17:09:40.284Z,24.83
2019-02-10T17:09:49.750Z,24.82
2019-02-10T17:09:59.281Z,24.83
2019-02-10T17:10:20.763Z,24.83
2019-02-10T17:10:31.452Z,24.82
2019-02-10T17:10:40.841Z,24.85
2019-02-10T17:10:50.426Z,24.82
2019-02-10T17:10:59.910Z,24.82
2019-02-10T17:11:14.355Z,24.82
2019-02-10T17:11:22.055Z,24.83
2019-02-10T17:11:31.471Z,24.82
2019-02-10T17:11:40.860Z,24.83
2019-02-10T17:11:50.289Z,24.84
2019-02-10T17:11:59.681Z,24.82
2019-02-10T17:12:09.122Z,24.81
2019-02-10T17:12:18.506Z,24.81
2019-02-10T17:12:27.942Z,24.82
2019-02-10T17:12:37.331Z,24.80
2019-02-10T17:12:46.748Z,24.80
2019-02-10T17:12:56.139Z,24.82
2019-02-10T17:13:05.601Z,24.86
2019-02-10T17:13:15.206Z,24.85
2019-02-10T17:13:24.617Z,24.84
2019-02-10T17:13:34.008Z,24.82
2019-02-10T17:13:43.426Z,24.82
2019-02-10T17:13:52.811Z,24.79
2019-02-10T17:14:02.227Z,24.78
2019-02-10T17:14:11.616Z,24.76
2019-02-10T17:14:21.028Z,24.77
2019-02-10T17:14:30.415Z,24.77
2019-02-10T17:14:39.828Z,24.78
2019-02-10T17:14:50.288Z,24.76
2019-02-10T17:14:59.702Z,24.76
2019-02-10T17:15:11.431Z,24.78
2019-02-10T17:15:20.849Z,24.78
2019-02-10T17:15:30.235Z,24.78
2019-02-10T17:15:39.647Z,24.77
2019-02-10T17:15:49.040Z,24.77
2019-02-10T17:16:04.981Z,24.76
2019-02-10T17:16:09.568Z,24.75
2019-02-10T17:16:18.967Z,24.74
2019-02-10T17:16:28.384Z,24.75
2019-02-10T17:16:37.771Z,24.75
2019-02-10T17:16:47.211Z,24.74
2019-02-10T17:16:56.697Z,24.73
2019-02-10T17:17:06.109Z,24.74
2019-02-10T17:17:15.495Z,24.75
2019-02-10T17:17:24.911Z,24.76
2019-02-10T17:17:34.294Z,24.75
2019-02-10T17:17:44.850Z,24.76
2019-02-10T17:17:54.238Z,24.76
2019-02-10T17:18:03.650Z,24.75
2019-02-10T17:18:13.040Z,24.75
2019-02-10T17:18:22.450Z,24.74
2019-02-10T17:18:31.838Z,24.75
2019-02-10T17:18:41.250Z,24.74
2019-02-10T17:18:50.639Z,24.74
2019-02-10T17:19:00.042Z,24.73
2019-02-10T17:19:09.430Z,24.74
2019-02-10T17:19:18.854Z,24.74
2019-02-10T17:19:28.361Z,24.73
2019-02-10T17:19:37.773Z,24.73
2019-02-10T17:19:47.158Z,24.72
2019-02-10T17:19:56.692Z,24.69
2019-02-10T17:20:09.219Z,24.72
2019-02-10T17:20:18.639Z,24.74
2019-02-10T17:20:28.298Z,24.73
2019-02-10T17:20:37.703Z,24.74
2019-02-10T17:20:47.093Z,24.73
2019-02-10T17:20:56.506Z,24.73
2019-02-10T17:21:05.894Z,24.73
2019-02-10T17:21:15.320Z,24.76
2019-02-10T17:21:24.703Z,24.77
2019-02-10T17:21:34.118Z,24.81
2019-02-10T17:21:43.512Z,24.79
2019-02-10T17:21:52.939Z,24.81
2019-02-10T17:22:05.769Z,24.81
2019-02-10T17:22:16.945Z,24.83
2019-02-10T17:22:26.353Z,24.89
2019-02-10T17:22:35.771Z,24.87
2019-02-10T17:22:45.164Z,24.85
2019-02-10T17:22:54.575Z,24.86
2019-02-10T17:23:03.969Z,24.85
2019-02-10T17:23:13.414Z,24.84
2019-02-10T17:23:22.794Z,24.87
2019-02-10T17:23:33.290Z,24.84
2019-02-10T17:23:42.875Z,24.83
2019-02-10T17:23:52.299Z,24.82
2019-02-10T17:24:01.686Z,24.84
2019-02-10T17:24:11.117Z,24.85
2019-02-10T17:24:20.502Z,24.84
2019-02-10T17:24:29.953Z,24.84
2019-02-10T17:24:39.342Z,24.84
2019-02-10T17:24:48.911Z,24.84
2019-02-10T17:24:58.299Z,24.83
2019-02-10T17:25:14.103Z,24.83
2019-02-10T17:25:26.743Z,24.83
2019-02-10T17:25:36.158Z,24.83
2019-02-10T17:25:45.546Z,24.82
2019-02-10T17:25:54.985Z,24.83
2019-02-10T17:26:04.354Z,24.84
2019-02-10T17:26:13.778Z,24.85
2019-02-10T17:26:23.169Z,24.84
2019-02-10T17:26:32.574Z,24.85
2019-02-10T17:26:41.969Z,24.85
2019-02-10T17:26:51.378Z,24.85
2019-02-10T17:27:00.766Z,24.87
2019-02-10T17:27:10.183Z,24.88
2019-02-10T17:27:19.638Z,24.87
2019-02-10T17:27:29.059Z,24.87
2019-02-10T17:27:38.445Z,24.85
2019-02-10T17:27:47.891Z,24.85
2019-02-10T17:27:57.280Z,24.83
2019-02-10T17:28:06.849Z,24.85
2019-02-10T17:28:16.419Z,24.82
2019-02-10T17:28:25.999Z,24.85
2019-02-10T17:28:35.391Z,24.84
2019-02-10T17:28:46.832Z,24.85
2019-02-10T17:28:56.225Z,24.86
2019-02-10T17:29:06.019Z,24.86
2019-02-10T17:29:15.389Z,24.87
2019-02-10T17:29:24.882Z,24.86
2019-02-10T17:29:34.269Z,24.87
2019-02-10T17:29:43.691Z,24.87
2019-02-10T17:29:53.598Z,24.89
2019-02-10T17:30:03.003Z,24.87
2019-02-10T17:30:14.946Z,24.88
2019-02-10T17:30:24.317Z,24.88
2019-02-10T17:30:33.702Z,24.88
2019-02-10T17:30:43.395Z,24.88
2019-02-10T17:30:52.848Z,24.89
2019-02-10T17:31:02.338Z,24.88
2019-02-10T17:31:11.725Z,24.88
2019-02-10T17:31:21.144Z,24.86
2019-02-10T17:31:30.530Z,24.86
2019-02-10T17:31:39.993Z,24.87
2019-02-10T17:31:49.482Z,24.87
2019-02-10T17:31:58.891Z,24.87
2019-02-10T17:32:08.275Z,24.87
2019-02-10T17:32:17.689Z,24.88
2019-02-10T17:32:27.074Z,24.88
2019-02-10T17:32:36.494Z,24.89
2019-02-10T17:32:45.882Z,24.88
2019-02-10T17:32:55.297Z,24.91
2019-02-10T17:33:04.687Z,24.94
2019-02-10T17:33:14.107Z,24.97
2019-02-10T17:33:23.495Z,25.02
2019-02-10T17:33:32.935Z,25.05
2019-02-10T17:33:42.328Z,25.08
2019-02-10T17:33:51.730Z,25.11
2019-02-10T17:34:11.545Z,25.17
2019-02-10T17:34:20.964Z,25.11
2019-02-10T17:34:30.379Z,25.35
2019-02-10T17:34:39.977Z,25.45
2019-02-10T17:34:49.500Z,25.48
2019-02-10T17:34:58.925Z,25.50
2019-02-10T17:35:10.784Z,25.47
2019-02-10T17:35:20.233Z,25.44
2019-02-10T17:35:29.645Z,25.39
2019-02-10T17:35:39.072Z,25.39
2019-02-10T17:35:48.507Z,25.39
2019-02-10T17:35:57.928Z,25.39
2019-02-10T17:36:26.339Z,25.45
2019-02-10T17:36:35.784Z,25.44
2019-02-10T17:36:45.207Z,25.45
2019-02-10T17:36:54.628Z,25.43
2019-02-10T17:37:04.059Z,25.44
2019-02-10T17:37:13.479Z,25.44
2019-02-10T17:37:22.897Z,25.44
2019-02-10T17:37:32.357Z,25.43
2019-02-10T17:37:41.781Z,25.43
2019-02-10T17:37:51.199Z,25.42
2019-02-10T17:38:00.794Z,25.40
2019-02-10T17:38:10.212Z,25.39
2019-02-10T17:38:19.733Z,25.39
2019-02-10T17:38:29.180Z,25.39
2019-02-10T17:38:38.680Z,25.41
2019-02-10T17:38:48.101Z,25.43
2019-02-10T17:38:57.590Z,25.46
2019-02-10T17:39:08.448Z,25.47
2019-02-10T17:39:17.886Z,25.49
2019-02-10T17:39:27.307Z,25.50
2019-02-10T17:39:36.799Z,25.50
2019-02-10T17:39:46.309Z,25.48
2019-02-10T17:39:55.736Z,25.48
2019-02-10T17:40:14.405Z,25.47
2019-02-10T17:40:32.661Z,25.51
2019-02-10T17:41:07.664Z,25.60
2019-02-10T17:41:36.722Z,25.64
2019-02-10T17:41:46.411Z,25.61
2019-02-10T17:41:55.835Z,25.61
2019-02-10T17:42:05.247Z,25.60
2019-02-10T17:42:14.669Z,25.61
2019-02-10T17:42:24.094Z,25.62
2019-02-10T17:42:33.512Z,25.58
2019-02-10T17:42:42.939Z,25.61
2019-02-10T17:42:52.361Z,25.61
2019-02-10T17:43:03.132Z,25.59
2019-02-10T17:43:13.018Z,25.58
2019-02-10T17:43:28.071Z,25.59
2019-02-10T17:43:33.661Z,25.60
2019-02-10T17:43:43.085Z,25.59
2019-02-10T17:43:52.532Z,25.58
2019-02-10T17:44:01.953Z,25.58
2019-02-10T17:44:11.393Z,25.57
2019-02-10T17:44:20.813Z,25.54
2019-02-10T17:44:30.399Z,25.53
2019-02-10T17:44:39.821Z,25.53
2019-02-10T17:44:49.238Z,25.51
2019-02-10T17:44:58.707Z,25.50
2019-02-10T17:45:10.060Z,25.51
2019-02-10T17:45:19.474Z,25.48
2019-02-10T17:45:28.885Z,25.48
2019-02-10T17:45:40.072Z,25.48
2019-02-10T17:45:49.557Z,25.48
2019-02-10T17:45:58.954Z,25.47
2019-02-10T17:46:08.378Z,25.47
2019-02-10T17:46:17.791Z,25.47
2019-02-10T17:46:27.201Z,25.47
2019-02-10T17:46:36.611Z,25.46
2019-02-10T17:46:46.029Z,25.45
2019-02-10T17:46:55.481Z,25.44
2019-02-10T17:47:04.893Z,25.44
2019-02-10T17:47:14.302Z,25.44
2019-02-10T17:47:23.726Z,25.41
2019-02-10T17:47:33.145Z,25.42
2019-02-10T17:47:42.565Z,25.40
2019-02-10T17:47:53.252Z,25.40
2019-02-10T17:48:03.740Z,25.38
2019-02-10T17:48:13.133Z,25.38
2019-02-10T17:48:23.622Z,25.37
2019-02-10T17:48:33.084Z,25.36
2019-02-10T17:48:42.519Z,25.37
2019-02-10T17:48:51.921Z,25.40
2019-02-10T17:49:01.346Z,25.43
2019-02-10T17:49:10.740Z,25.46
2019-02-10T17:49:20.207Z,25.45
2019-02-10T17:49:29.658Z,25.43
2019-02-10T17:49:39.086Z,25.44
2019-02-10T17:49:48.579Z,25.44
2019-02-10T17:49:57.992Z,25.45
2019-02-10T17:50:12.073Z,25.51
2019-02-10T17:50:21.502Z,25.54
2019-02-10T17:50:30.897Z,25.55
2019-02-10T17:50:40.309Z,25.57
2019-02-10T17:50:49.711Z,25.54
2019-02-10T17:50:59.120Z,25.55
2019-02-10T17:51:08.512Z,25.54
2019-02-10T17:51:17.932Z,25.52
2019-02-10T17:51:27.323Z,25.55
2019-02-10T17:51:36.745Z,25.55
2019-02-10T17:51:46.141Z,25.61
2019-02-10T17:51:55.562Z,25.62
2019-02-10T17:52:04.952Z,25.60
2019-02-10T17:52:14.391Z,25.58
2019-02-10T17:52:31.712Z,25.54
2019-02-10T17:52:34.913Z,25.52
2019-02-10T17:52:44.305Z,25.49
2019-02-10T17:52:53.725Z,25.47
2019-02-10T17:53:03.120Z,25.45
2019-02-10T17:53:12.577Z,25.44
2019-02-10T17:53:21.972Z,25.43
2019-02-10T17:53:31.385Z,25.42
2019-02-10T17:53:40.776Z,25.40
2019-02-10T17:53:50.197Z,25.40
2019-02-10T17:53:59.589Z,25.40
2019-02-10T17:54:09.138Z,25.40
2019-02-10T17:54:19.479Z,25.38
2019-02-10T17:54:28.985Z,25.38
2019-02-10T17:54:38.376Z,25.37
2019-02-10T17:54:47.800Z,25.35
2019-02-10T17:54:57.194Z,25.34
2019-02-10T17:55:08.605Z,25.32
2019-02-10T17:55:18.113Z,25.30
2019-02-10T17:55:27.572Z,25.30
2019-02-10T17:55:36.964Z,25.25
2019-02-10T17:55:46.388Z,25.23
2019-02-10T17:55:55.789Z,25.19
2019-02-10T17:56:05.198Z,25.14
2019-02-10T17:56:14.592Z,25.12
2019-02-10T17:56:24.017Z,25.07
2019-02-10T17:56:33.408Z,25.06
2019-02-10T17:56:42.828Z,25.04
2019-02-10T17:56:52.221Z,24.98
2019-02-10T17:57:01.764Z,24.95
2019-02-10T17:57:11.216Z,24.92
2019-02-10T17:57:20.640Z,24.87
2019-02-10T17:57:30.028Z,24.84
2019-02-10T17:57:39.456Z,24.82
2019-02-10T17:57:48.859Z,24.80
2019-02-10T17:57:58.292Z,24.78
2019-02-10T17:58:07.690Z,24.74
2019-02-10T17:58:17.101Z,24.72
2019-02-10T17:58:26.559Z,24.67
2019-02-10T17:58:35.956Z,24.65
2019-02-10T17:58:45.344Z,24.66
2019-02-10T17:58:54.761Z,24.64
2019-02-10T17:59:07.306Z,24.63
2019-02-10T17:59:16.862Z,24.61
2019-02-10T17:59:26.251Z,24.56
2019-02-10T17:59:35.673Z,24.53
2019-02-10T17:59:45.067Z,24.53
2019-02-10T17:59:54.648Z,24.51
2019-02-10T18:00:12.737Z,24.48
2019-02-10T18:00:23.676Z,24.43
2019-02-10T18:00:37.417Z,24.38
2019-02-10T18:00:48.357Z,24.36
2019-02-10T18:00:57.749Z,24.34
2019-02-10T18:01:07.852Z,24.34
2019-02-10T18:01:17.244Z,24.33
2019-02-10T18:01:26.665Z,24.30
2019-02-10T18:01:36.059Z,24.30
2019-02-10T18:01:45.481Z,24.28
2019-02-10T18:01:55.940Z,24.25
2019-02-10T18:02:05.364Z,24.23
2019-02-10T18:02:14.755Z,24.20
2019-02-10T18:02:24.172Z,24.19
2019-02-10T18:02:33.570Z,24.18
2019-02-10T18:02:42.993Z,24.17
2019-02-10T18:02:52.394Z,24.15
2019-02-10T18:03:01.819Z,24.12
2019-02-10T18:03:11.216Z,24.07
2019-02-10T18:03:20.648Z,24.02
2019-02-10T18:03:30.161Z,23.98
2019-02-10T18:03:39.581Z,23.96
2019-02-10T18:03:48.976Z,23.93
2019-02-10T18:03:58.396Z,23.92
2019-02-10T18:04:07.789Z,23.92
2019-02-10T18:04:17.211Z,23.93
2019-02-10T18:04:26.603Z,23.92
2019-02-10T18:04:37.547Z,23.89
2019-02-10T18:04:48.363Z,23.87
2019-02-10T18:04:57.782Z,23.84
2019-02-10T18:05:08.712Z,23.83
2019-02-10T18:05:18.129Z,23.82
2019-02-10T18:05:27.569Z,23.84
2019-02-10T18:05:37.076Z,23.83
2019-02-10T18:05:46.479Z,23.81
2019-02-10T18:05:55.895Z,23.81
2019-02-10T18:06:06.259Z,23.78
2019-02-10T18:06:15.675Z,23.76
2019-02-10T18:06:26.299Z,23.78
2019-02-10T18:06:35.665Z,23.75
2019-02-10T18:06:45.057Z,23.75
2019-02-10T18:06:54.473Z,23.74
2019-02-10T18:07:03.886Z,23.75
2019-02-10T18:07:14.360Z,23.75
2019-02-10T18:07:23.747Z,23.73
2019-02-10T18:07:33.169Z,23.72
2019-02-10T18:07:42.561Z,23.70
2019-02-10T18:07:51.987Z,23.64
2019-02-10T18:08:01.380Z,23.63
2019-02-10T18:08:10.800Z,23.62
2019-02-10T18:08:20.243Z,23.59
2019-02-10T18:08:29.649Z,23.57
2019-02-10T18:08:39.045Z,23.57
2019-02-10T18:08:48.464Z,23.56
2019-02-10T18:08:58.829Z,23.52
2019-02-10T18:09:08.253Z,23.50
2019-02-10T18:09:17.649Z,23.49
2019-02-10T18:09:27.080Z,23.47
2019-02-10T18:09:36.469Z,23.45
2019-02-10T18:09:45.896Z,23.43
2019-02-10T18:09:55.288Z,23.43
2019-02-10T18:10:07.207Z,23.39
2019-02-10T18:10:16.767Z,23.35
2019-02-10T18:10:26.204Z,23.33
2019-02-10T18:10:35.590Z,23.32
2019-02-10T18:10:45.021Z,23.32
2019-02-10T18:10:54.684Z,23.30
2019-02-10T18:11:04.096Z,23.30
2019-02-10T18:11:13.489Z,23.28
2019-02-10T18:11:30.740Z,23.24
2019-02-10T18:11:34.012Z,23.20
2019-02-10T18:11:43.436Z,23.20
2019-02-10T18:11:52.831Z,23.16
2019-02-10T18:12:02.265Z,23.13
2019-02-10T18:12:11.655Z,23.08
2019-02-10T18:12:21.249Z,23.08
2019-02-10T18:12:30.646Z,23.08
2019-02-10T18:12:40.071Z,23.06
2019-02-10T18:12:49.493Z,23.02
2019-02-10T18:12:58.914Z,22.96
2019-02-10T18:13:08.318Z,22.92
2019-02-10T18:13:17.729Z,22.88
2019-02-10T18:13:28.289Z,22.86
2019-02-10T18:13:37.819Z,22.83
2019-02-10T18:13:47.215Z,22.80
2019-02-10T18:13:56.632Z,22.78
2019-02-10T18:14:07.554Z,22.77
2019-02-10T18:14:18.510Z,22.71
2019-02-10T18:14:32.306Z,22.66
2019-02-10T18:14:43.261Z,22.61
2019-02-10T18:15:06.453Z,22.56
2019-02-10T18:15:17.400Z,22.56
2019-02-10T18:15:28.327Z,22.46
2019-02-10T18:15:55.530Z,22.48
2019-02-10T18:16:12.296Z,22.34
2019-02-10T18:16:23.244Z,22.29
2019-02-10T18:16:34.169Z,22.31
2019-02-10T18:16:45.123Z,22.35
2019-02-10T18:17:12.373Z,22.36
2019-02-10T18:17:26.094Z,22.34
2019-02-10T18:17:37.013Z,22.39
2019-02-10T18:18:04.295Z,22.37
2019-02-10T18:18:15.221Z,22.32
2019-02-10T18:18:29.025Z,22.17
2019-02-10T18:18:39.948Z,22.15
2019-02-10T18:18:53.369Z,22.11
2019-02-10T18:19:09.836Z,22.13
2019-02-10T18:19:29.792Z,22.17
2019-02-10T18:19:40.708Z,22.16
2019-02-10T18:19:51.648Z,22.19
2019-02-10T18:20:12.684Z,22.19
2019-02-10T18:20:26.309Z,22.21
2019-02-10T18:20:55.304Z,22.19
2019-02-10T18:21:21.372Z,22.20
2019-02-10T18:21:47.501Z,22.18
2019-02-10T18:21:58.476Z,22.20
2019-02-10T18:22:09.395Z,22.16
2019-02-10T18:22:20.340Z,22.14
2019-02-10T18:22:31.271Z,22.13
2019-02-10T18:22:43.185Z,22.11
2019-02-10T18:22:54.107Z,22.10
2019-02-10T18:23:21.580Z,22.06
2019-02-10T18:23:41.468Z,22.03
2019-02-10T18:23:52.418Z,22.02
2019-02-10T18:24:09.074Z,22.03
2019-02-10T18:24:20.026Z,22.01
2019-02-10T18:24:33.639Z,21.99
2019-02-10T18:24:59.647Z,22.01
2019-02-10T18:25:10.574Z,21.98
2019-02-10T18:25:27.417Z,21.95
2019-02-10T18:25:38.364Z,21.92
2019-02-10T18:25:58.264Z,21.93
2019-02-10T18:26:18.159Z,21.89
2019-02-10T18:26:46.566Z,21.89
2019-02-10T18:26:57.528Z,21.90
2019-02-10T18:27:08.457Z,21.86
2019-02-10T18:27:22.602Z,21.83
2019-02-10T18:27:52.067Z,21.81
2019-02-10T18:28:03.012Z,21.79
2019-02-10T18:28:13.964Z,21.79
2019-02-10T18:28:27.717Z,21.79
2019-02-10T18:28:38.710Z,21.78
2019-02-10T18:29:04.673Z,21.79
2019-02-10T18:29:36.495Z,21.79
2019-02-10T18:29:51.752Z,21.83
2019-02-10T18:30:02.955Z,21.87
2019-02-10T18:30:21.502Z,21.90
2019-02-10T18:30:48.854Z,21.93
2019-02-10T18:31:08.621Z,21.95
2019-02-10T18:31:22.372Z,21.97
2019-02-10T18:31:33.341Z,21.99
2019-02-10T18:31:44.272Z,22.00
2019-02-10T18:31:58.007Z,22.02
2019-02-10T18:32:11.796Z,22.04
2019-02-10T18:32:22.753Z,22.06
2019-02-10T18:32:33.695Z,22.09
2019-02-10T18:32:47.745Z,22.11
2019-02-10T18:32:58.697Z,22.13
2019-02-10T18:33:09.646Z,22.14
2019-02-10T18:33:36.630Z,22.16
2019-02-10T18:34:02.564Z,22.17
2019-02-10T18:34:13.504Z,22.18
2019-02-10T18:34:24.460Z,22.21
2019-02-10T18:34:35.413Z,22.22
2019-02-10T18:52:13.157Z,22.59
2019-02-10T18:52:24.102Z,22.56
2019-02-10T18:52:51.368Z,22.56
2019-02-10T18:53:11.327Z,22.55
2019-02-10T18:53:22.271Z,22.56
2019-02-10T18:53:36.179Z,22.58
2019-02-10T18:53:50.270Z,22.58
2019-02-10T18:54:07.057Z,22.57
2019-02-10T18:54:23.786Z,22.56
2019-02-10T18:54:40.558Z,22.58
2019-02-10T18:55:07.865Z,22.58
2019-02-10T18:55:18.823Z,22.58
2019-02-10T18:55:47.887Z,22.56
2019-02-10T18:56:14.207Z,22.57
2019-02-10T18:56:25.183Z,22.60
2019-02-10T18:56:36.136Z,22.62
2019-02-10T18:56:53.202Z,22.62
2019-02-10T18:57:12.937Z,22.61
2019-02-10T18:57:29.637Z,22.61
2019-02-10T18:57:59.609Z,22.61
2019-02-10T18:58:16.593Z,22.60
2019-02-10T18:58:33.247Z,22.60
2019-02-10T18:58:44.191Z,22.61
2019-02-10T18:59:11.477Z,22.62
2019-02-10T18:59:31.680Z,22.62
2019-02-10T18:59:42.649Z,22.62
2019-02-10T18:59:53.807Z,22.62
2019-02-10T19:00:05.435Z,22.62
2019-02-10T19:00:19.551Z,22.61
2019-02-10T19:00:30.596Z,22.61
2019-02-10T19:00:44.463Z,22.62
2019-02-10T19:00:55.448Z,22.63
2019-02-10T19:01:06.394Z,22.64
2019-02-10T19:01:20.446Z,22.63
2019-02-10T19:01:31.470Z,22.63
2019-02-10T19:01:51.410Z,22.63
2019-02-10T19:02:02.358Z,22.63
2019-02-10T19:02:13.373Z,22.63
2019-02-10T19:02:30.264Z,22.64
2019-02-10T19:03:00.398Z,22.65
2019-02-10T19:03:27.525Z,22.64
2019-02-10T19:03:41.071Z,22.65
2019-02-10T19:04:10.345Z,22.66
2019-02-10T19:04:24.324Z,22.67
2019-02-10T19:04:51.456Z,22.67
2019-02-10T19:05:07.884Z,22.67
2019-02-10T19:05:21.526Z,22.68
2019-02-10T19:05:35.039Z,22.69
2019-02-10T19:05:58.046Z,22.68
2019-02-10T19:06:08.994Z,22.69
2019-02-10T19:06:19.927Z,22.69
2019-02-10T19:06:36.619Z,22.69
2019-02-10T19:06:56.653Z,22.68
2019-02-10T19:07:07.687Z,22.70
2019-02-10T19:07:24.561Z,22.71
2019-02-10T19:07:35.591Z,22.72
2019-02-10T19:07:46.597Z,22.71
2019-02-10T19:08:06.537Z,22.72
2019-02-10T19:08:17.572Z,22.72
2019-02-10T19:08:31.152Z,22.71
2019-02-10T19:08:44.775Z,22.71
2019-02-10T19:09:07.950Z,22.73
2019-02-10T19:09:35.145Z,22.72
2019-02-10T19:09:55.020Z,22.75
2019-02-10T19:10:10.425Z,22.76
2019-02-10T19:10:33.316Z,22.76
2019-02-10T19:11:02.494Z,22.77
2019-02-10T19:11:18.941Z,22.77
2019-02-10T19:11:29.940Z,22.77
2019-02-10T19:12:00.485Z,22.79
2019-02-10T19:12:26.455Z,22.78
2019-02-10T19:12:40.204Z,22.80
2019-02-10T19:12:56.708Z,22.80
2019-02-10T19:13:23.634Z,22.82
2019-02-10T19:13:49.637Z,22.82
2019-02-10T19:14:00.591Z,22.84
2019-02-10T19:14:20.384Z,22.86
2019-02-10T19:14:44.262Z,22.86
2019-02-10T19:14:50.166Z,22.85
2019-02-10T19:15:01.121Z,22.85
2019-02-10T19:15:20.925Z,22.85
2019-02-10T19:15:43.976Z,22.84
2019-02-10T19:16:00.695Z,22.84
2019-02-10T19:16:11.653Z,22.83
2019-02-10T19:16:34.499Z,22.83
2019-02-10T19:16:51.544Z,22.84
2019-02-10T19:17:02.476Z,22.83
2019-02-10T19:17:31.112Z,22.84
2019-02-10T19:17:42.201Z,22.83
2019-02-10T19:17:55.740Z,22.82
2019-02-10T19:18:09.565Z,22.82
2019-02-10T19:18:32.816Z,22.83
2019-02-10T19:18:43.755Z,22.82
2019-02-10T19:19:00.947Z,22.83
2019-02-10T19:19:12.410Z,22.82
2019-02-10T19:19:25.978Z,22.83
2019-02-10T19:19:39.575Z,22.83
2019-02-10T19:19:56.313Z,22.84
2019-02-10T19:20:25.745Z,22.84
2019-02-10T19:20:45.510Z,22.84
2019-02-10T19:21:11.369Z,22.83
2019-02-10T19:21:40.831Z,22.85
2019-02-10T19:22:09.979Z,22.84
2019-02-10T19:22:23.861Z,22.85
2019-02-10T19:22:34.809Z,22.87
2019-02-10T19:23:01.834Z,22.86
2019-02-10T19:23:12.831Z,22.87
2019-02-10T19:23:23.866Z,22.86
2019-02-10T19:23:40.991Z,22.87
2019-02-10T19:23:58.020Z,22.85
2019-02-10T19:24:09.013Z,22.87
2019-02-10T19:24:21.043Z,22.87
2019-02-10T19:24:44.256Z,22.87
2019-02-10T19:25:04.160Z,22.87
2019-02-10T19:25:17.823Z,22.88
2019-02-10T19:25:34.809Z,22.88
2019-02-10T19:25:51.937Z,22.90
2019-02-10T19:26:03.272Z,22.88
2019-02-10T19:26:29.544Z,22.87
2019-02-10T19:26:40.497Z,22.88
2019-02-10T19:26:53.994Z,22.88
2019-02-10T19:27:13.584Z,22.89
2019-02-10T19:27:41.225Z,22.88
2019-02-10T19:28:00.904Z,22.88
2019-02-10T19:28:23.641Z,22.87
2019-02-10T19:28:40.509Z,22.90
2019-02-10T19:29:00.738Z,22.90
2019-02-10T19:29:23.456Z,22.90
2019-02-10T19:29:34.408Z,22.92
2019-02-10T19:29:45.368Z,22.92
2019-02-10T19:30:08.107Z,22.92
2019-02-10T19:30:22.025Z,22.91
2019-02-10T19:30:39.012Z,22.90
2019-02-10T19:30:59.282Z,22.92
2019-02-10T19:31:10.249Z,22.92
2019-02-10T19:31:39.271Z,22.91
2019-02-10T19:32:08.647Z,22.92
2019-02-10T19:32:32.694Z,22.92
2019-02-10T19:32:46.724Z,22.92
2019-02-10T19:33:03.852Z,22.93
2019-02-10T19:33:14.944Z,22.93
2019-02-10T19:33:25.981Z,22.93
2019-02-10T19:33:36.937Z,22.92
2019-02-10T19:34:04.492Z,22.93
2019-02-10T19:34:15.480Z,22.93
2019-02-10T19:34:35.501Z,22.94
2019-02-10T19:34:58.412Z,22.95
2019-02-10T19:35:12.329Z,22.93
2019-02-10T19:35:35.117Z,22.95
2019-02-10T19:35:46.070Z,22.94
2019-02-10T19:35:57.017Z,22.92
2019-02-10T19:36:11.073Z,22.94
2019-02-10T19:36:22.097Z,22.94
2019-02-10T19:36:35.895Z,22.94
2019-02-10T19:36:52.632Z,22.94
2019-02-10T19:37:03.660Z,22.94
2019-02-10T19:37:17.532Z,22.95
2019-02-10T19:37:31.266Z,22.95
2019-02-10T19:37:58.484Z,22.97
2019-02-10T19:38:18.705Z,22.97
2019-02-10T19:38:32.528Z,22.97
2019-02-10T19:38:52.396Z,22.97
2019-02-10T19:39:03.355Z,22.98
2019-02-10T19:39:22.177Z,23.00
2019-02-10T19:39:48.290Z,23.00
2019-02-10T19:40:14.204Z,23.00
2019-02-10T19:40:25.224Z,23.01
2019-02-10T19:40:36.179Z,23.02
2019-02-10T19:40:52.916Z,23.02
2019-02-10T19:41:12.849Z,23.02
2019-02-10T19:41:29.707Z,23.03
2019-02-10T19:41:40.660Z,23.05
2019-02-10T19:42:00.769Z,23.06
2019-02-10T19:42:17.568Z,23.07
2019-02-10T19:42:34.479Z,23.08
2019-02-10T19:43:01.547Z,23.09
2019-02-10T19:43:24.389Z,23.11
2019-02-10T19:43:50.364Z,23.11
2019-02-10T19:44:13.142Z,23.12
2019-02-10T19:44:39.360Z,23.13
2019-02-10T19:44:50.305Z,23.14
2019-02-10T19:45:01.321Z,23.15
2019-02-10T19:45:28.611Z,23.15
2019-02-10T19:45:56.188Z,23.16
2019-02-10T19:46:07.151Z,23.16
2019-02-10T19:46:18.108Z,23.17
2019-02-10T19:46:29.074Z,23.17
2019-02-10T19:46:55.370Z,23.18
2019-02-10T19:47:09.329Z,23.18
2019-02-10T19:47:20.369Z,23.19
2019-02-10T19:47:37.349Z,23.20
2019-02-10T19:47:51.082Z,23.20
2019-02-10T19:48:14.234Z,23.21
2019-02-10T19:48:25.162Z,23.23
2019-02-10T19:48:45.416Z,23.23
2019-02-10T19:49:11.376Z,23.24
2019-02-10T19:49:34.279Z,23.25
2019-02-10T19:49:47.948Z,23.24
2019-02-10T19:50:15.369Z,23.28
2019-02-10T19:50:35.141Z,23.25
2019-02-10T19:50:58.988Z,23.27
2019-02-10T19:51:21.951Z,23.27
2019-02-10T19:51:38.777Z,23.27
2019-02-10T19:51:55.419Z,23.28
2019-02-10T19:52:18.536Z,23.28
2019-02-10T19:52:32.592Z,23.28
2019-02-10T19:52:58.583Z,23.29
2019-02-10T19:53:24.717Z,23.29
2019-02-10T19:53:35.640Z,23.29
2019-02-10T19:53:49.292Z,23.31
2019-02-10T19:54:09.000Z,23.31
2019-02-10T19:54:19.954Z,23.31
2019-02-10T19:54:40.061Z,23.30
2019-02-10T19:54:50.993Z,23.32
2019-02-10T19:55:01.916Z,23.32
2019-02-10T19:55:12.920Z,23.34
2019-02-10T19:55:23.838Z,23.33
2019-02-10T19:55:40.601Z,23.34
2019-02-10T19:55:51.596Z,23.33
2019-02-10T19:56:02.543Z,23.33
2019-02-10T19:56:13.470Z,23.34
2019-02-10T19:56:40.487Z,23.35
2019-02-10T19:56:54.423Z,23.35
2019-02-10T19:57:13.996Z,23.37
2019-02-10T19:57:41.337Z,23.37
2019-02-10T19:58:07.487Z,23.37
2019-02-10T19:58:21.292Z,23.36
2019-02-10T19:58:40.997Z,23.38
2019-02-10T19:58:51.947Z,23.38
2019-02-10T19:59:05.793Z,23.38
2019-02-10T19:59:16.751Z,23.39
2019-02-10T19:59:27.723Z,23.39
2019-02-10T19:59:38.677Z,23.40
2019-02-10T20:00:07.305Z,23.40
2019-02-10T20:00:25.289Z,23.41
2019-02-10T20:00:52.517Z,23.42
2019-02-10T20:01:03.471Z,23.44
2019-02-10T20:01:32.846Z,23.44
2019-02-10T20:01:44.330Z,23.44
2019-02-10T20:02:07.617Z,23.45
2019-02-10T20:02:33.547Z,23.45
2019-02-10T20:03:00.652Z,23.47
2019-02-10T20:03:11.605Z,23.48
2019-02-10T20:03:25.049Z,23.49
2019-02-10T20:03:44.707Z,23.50
2019-02-10T20:03:55.652Z,23.50
2019-02-10T20:04:06.604Z,23.52
2019-02-10T20:04:23.261Z,23.52
2019-02-10T20:04:36.925Z,23.51